sensor_id;sensor_type;location;lat;lon;timestamp;temperature;humidity
71563;DHT22;59391;52.504;13.438;2023-07-31T11:23:16;19.00;79.30
71563;DHT22;59391;52.504;13.438;2023-07-31T11:25:43;18.90;77.30
71563;DHT22;59391;52.504;13.438;2023-07-31T11:28:09;19.10;75.40
71563;DHT22;59391;52.504;13.438;2023-07-31T11:30:38;19.50;72.60
71563;DHT22;59391;52.504;13.438;2023-07-31T11:33:06;19.90;70.90
71563;DHT22;59391;52.504;13.438;2023-07-31T11:35:35;20.20;70.40
71563;DHT22;59391;52.504;13.438;2023-07-31T11:38:07;20.50;69.50
71563;DHT22;59391;52.504;13.438;2023-07-31T11:40:44;20.80;66.40
71563;DHT22;59391;52.504;13.438;2023-07-31T11:43:10;21.10;65.80
71563;DHT22;59391;52.504;13.438;2023-07-31T11:45:37;21.30;63.20
71563;DHT22;59391;52.504;13.438;2023-07-31T11:48:05;21.50;62.90
71563;DHT22;59391;52.504;13.438;2023-07-31T11:50:33;21.60;63.50
71563;DHT22;59391;52.504;13.438;2023-07-31T11:53:06;21.80;63.50
71563;DHT22;59391;52.504;13.438;2023-07-31T11:55:34;21.90;61.60
71563;DHT22;59391;52.504;13.438;2023-07-31T11:58:00;22.00;62.30
71563;DHT22;59391;52.504;13.438;2023-07-31T12:00:27;22.10;59.90
71563;DHT22;59391;52.504;13.438;2023-07-31T12:02:53;22.20;59.60
71563;DHT22;59391;52.504;13.438;2023-07-31T12:05:19;22.20;59.40
71563;DHT22;59391;52.504;13.438;2023-07-31T12:07:50;22.20;59.70
71563;DHT22;59391;52.504;13.438;2023-07-31T12:13:02;22.20;59.70
71563;DHT22;59391;52.504;13.438;2023-07-31T12:15:31;22.30;59.70
71563;DHT22;59391;52.504;13.438;2023-07-31T12:17:58;22.20;59.70
71563;DHT22;59391;52.504;13.438;2023-07-31T12:20:24;22.30;59.40
71563;DHT22;59391;52.504;13.438;2023-07-31T12:22:49;22.30;59.70
71563;DHT22;59391;52.504;13.438;2023-07-31T12:25:15;22.40;59.50
71563;DHT22;59391;52.504;13.438;2023-07-31T12:27:44;22.40;58.30
71563;DHT22;59391;52.504;13.438;2023-07-31T12:30:29;22.50;58.10
71563;DHT22;59391;52.504;13.438;2023-07-31T12:32:57;22.50;58.10
71563;DHT22;59391;52.504;13.438;2023-07-31T12:35:35;22.60;57.50
71563;DHT22;59391;52.504;13.438;2023-07-31T12:38:02;22.60;57.10
71563;DHT22;59391;52.504;13.438;2023-07-31T12:40:28;22.60;56.70
71563;DHT22;59391;52.504;13.438;2023-07-31T12:42:54;22.70;56.30
71563;DHT22;59391;52.504;13.438;2023-07-31T12:45:19;22.80;56.40
71563;DHT22;59391;52.504;13.438;2023-07-31T12:47:46;22.80;57.10
71563;DHT22;59391;52.504;13.438;2023-07-31T12:50:12;22.80;56.90
71563;DHT22;59391;52.504;13.438;2023-07-31T12:52:37;22.80;57.40
71563;DHT22;59391;52.504;13.438;2023-07-31T12:55:03;22.80;57.40
71563;DHT22;59391;52.504;13.438;2023-07-31T12:57:30;22.90;57.50
71563;DHT22;59391;52.504;13.438;2023-07-31T12:59:55;22.90;57.70
71563;DHT22;59391;52.504;13.438;2023-07-31T13:02:21;22.90;56.70
71563;DHT22;59391;52.504;13.438;2023-07-31T13:04:49;22.90;57.00
71563;DHT22;59391;52.504;13.438;2023-07-31T13:07:15;22.80;57.60
71563;DHT22;59391;52.504;13.438;2023-07-31T13:09:41;22.80;56.70
71563;DHT22;59391;52.504;13.438;2023-07-31T13:12:07;22.80;57.00
71563;DHT22;59391;52.504;13.438;2023-07-31T13:14:33;22.80;56.60
71563;DHT22;59391;52.504;13.438;2023-07-31T13:16:58;22.70;56.80
71563;DHT22;59391;52.504;13.438;2023-07-31T13:19:24;22.70;57.00
71563;DHT22;59391;52.504;13.438;2023-07-31T13:21:50;22.70;57.10
71563;DHT22;59391;52.504;13.438;2023-07-31T13:24:15;22.60;57.70
71563;DHT22;59391;52.504;13.438;2023-07-31T13:26:41;22.60;57.60
71563;DHT22;59391;52.504;13.438;2023-07-31T13:29:06;22.60;57.30
71563;DHT22;59391;52.504;13.438;2023-07-31T13:31:32;22.70;57.40
71563;DHT22;59391;52.504;13.438;2023-07-31T13:33:57;22.60;57.80
71563;DHT22;59391;52.504;13.438;2023-07-31T13:36:23;22.60;57.40
71563;DHT22;59391;52.504;13.438;2023-07-31T13:38:49;22.60;58.00
71563;DHT22;59391;52.504;13.438;2023-07-31T13:41:14;22.60;58.00
71563;DHT22;59391;52.504;13.438;2023-07-31T13:43:40;22.70;58.20
71563;DHT22;59391;52.504;13.438;2023-07-31T13:46:06;22.70;58.40
71563;DHT22;59391;52.504;13.438;2023-07-31T13:48:35;22.80;58.30
71563;DHT22;59391;52.504;13.438;2023-07-31T13:51:02;22.90;58.40
71563;DHT22;59391;52.504;13.438;2023-07-31T13:53:28;22.90;58.30
71563;DHT22;59391;52.504;13.438;2023-07-31T13:55:53;23.00;57.90
71563;DHT22;59391;52.504;13.438;2023-07-31T13:58:20;23.10;58.10
71563;DHT22;59391;52.504;13.438;2023-07-31T14:00:46;23.20;57.60
71563;DHT22;59391;52.504;13.438;2023-07-31T14:03:12;23.20;56.40
71563;DHT22;59391;52.504;13.438;2023-07-31T14:05:37;23.30;56.20
71563;DHT22;59391;52.504;13.438;2023-07-31T14:08:03;23.30;56.70
71563;DHT22;59391;52.504;13.438;2023-07-31T14:10:29;23.30;55.90
71563;DHT22;59391;52.504;13.438;2023-07-31T14:12:54;23.40;56.40
71563;DHT22;59391;52.504;13.438;2023-07-31T14:15:20;23.40;56.60
71563;DHT22;59391;52.504;13.438;2023-07-31T14:17:46;23.40;55.90
71563;DHT22;59391;52.504;13.438;2023-07-31T14:20:12;23.40;56.10
71563;DHT22;59391;52.504;13.438;2023-07-31T14:22:37;23.40;56.00
71563;DHT22;59391;52.504;13.438;2023-07-31T14:25:03;23.40;55.80
71563;DHT22;59391;52.504;13.438;2023-07-31T14:27:29;23.40;56.40
71563;DHT22;59391;52.504;13.438;2023-07-31T14:29:55;23.50;56.40
71563;DHT22;59391;52.504;13.438;2023-07-31T14:32:21;23.50;56.00
71563;DHT22;59391;52.504;13.438;2023-07-31T14:34:48;23.50;56.00
71563;DHT22;59391;52.504;13.438;2023-07-31T14:37:14;23.50;55.80
71563;DHT22;59391;52.504;13.438;2023-07-31T14:39:40;23.40;55.90
71563;DHT22;59391;52.504;13.438;2023-07-31T14:42:05;23.40;55.70
71563;DHT22;59391;52.504;13.438;2023-07-31T14:44:31;23.40;55.70
71563;DHT22;59391;52.504;13.438;2023-07-31T14:46:57;23.50;55.50
71563;DHT22;59391;52.504;13.438;2023-07-31T14:49:22;23.50;55.60
71563;DHT22;59391;52.504;13.438;2023-07-31T14:51:48;23.50;55.50
71563;DHT22;59391;52.504;13.438;2023-07-31T14:54:14;23.50;55.40
71563;DHT22;59391;52.504;13.438;2023-07-31T14:56:39;23.50;55.70
71563;DHT22;59391;52.504;13.438;2023-07-31T14:59:05;23.50;54.60
71563;DHT22;59391;52.504;13.438;2023-07-31T15:01:30;23.50;54.80
71563;DHT22;59391;52.504;13.438;2023-07-31T15:03:56;23.60;54.80
71563;DHT22;59391;52.504;13.438;2023-07-31T15:06:22;23.60;54.50
71563;DHT22;59391;52.504;13.438;2023-07-31T15:08:47;23.60;54.70
71563;DHT22;59391;52.504;13.438;2023-07-31T15:11:13;23.70;54.20
71563;DHT22;59391;52.504;13.438;2023-07-31T15:13:40;23.60;54.40
71563;DHT22;59391;52.504;13.438;2023-07-31T15:16:06;23.70;54.20
71563;DHT22;59391;52.504;13.438;2023-07-31T15:18:32;23.60;54.50
71563;DHT22;59391;52.504;13.438;2023-07-31T15:20:57;23.60;54.90
71563;DHT22;59391;52.504;13.438;2023-07-31T15:23:23;23.60;55.20
71563;DHT22;59391;52.504;13.438;2023-07-31T15:25:49;23.60;55.90
71563;DHT22;59391;52.504;13.438;2023-07-31T15:28:14;23.60;57.40
71563;DHT22;59391;52.504;13.438;2023-07-31T15:30:41;23.50;58.30
71563;DHT22;59391;52.504;13.438;2023-07-31T15:33:06;23.40;57.40
71563;DHT22;59391;52.504;13.438;2023-07-31T15:35:32;23.30;57.50
71563;DHT22;59391;52.504;13.438;2023-07-31T15:37:57;23.20;57.90
71563;DHT22;59391;52.504;13.438;2023-07-31T15:40:23;23.10;58.00
71563;DHT22;59391;52.504;13.438;2023-07-31T15:42:49;23.00;57.80
71563;DHT22;59391;52.504;13.438;2023-07-31T15:45:14;23.00;58.60
71563;DHT22;59391;52.504;13.438;2023-07-31T15:47:40;22.90;58.80
71563;DHT22;59391;52.504;13.438;2023-07-31T15:50:06;22.90;60.50
71563;DHT22;59391;52.504;13.438;2023-07-31T15:52:32;22.90;60.30
71563;DHT22;59391;52.504;13.438;2023-07-31T15:54:57;22.80;59.80
71563;DHT22;59391;52.504;13.438;2023-07-31T15:57:23;22.80;59.90
71563;DHT22;59391;52.504;13.438;2023-07-31T15:59:48;22.80;60.00
71563;DHT22;59391;52.504;13.438;2023-07-31T16:02:14;22.70;59.80
71563;DHT22;59391;52.504;13.438;2023-07-31T16:04:40;22.70;59.90
71563;DHT22;59391;52.504;13.438;2023-07-31T16:07:06;22.70;60.60
71563;DHT22;59391;52.504;13.438;2023-07-31T16:09:31;22.70;60.40
71563;DHT22;59391;52.504;13.438;2023-07-31T16:11:57;22.70;60.80
71563;DHT22;59391;52.504;13.438;2023-07-31T16:14:23;22.80;60.50
71563;DHT22;59391;52.504;13.438;2023-07-31T16:16:48;22.80;60.50
71563;DHT22;59391;52.504;13.438;2023-07-31T16:19:14;22.80;59.60
71563;DHT22;59391;52.504;13.438;2023-07-31T16:21:40;22.90;59.80
71563;DHT22;59391;52.504;13.438;2023-07-31T16:24:05;22.90;59.20
71563;DHT22;59391;52.504;13.438;2023-07-31T16:26:31;22.90;58.80
71563;DHT22;59391;52.504;13.438;2023-07-31T16:28:58;23.00;58.60
71563;DHT22;59391;52.504;13.438;2023-07-31T16:31:24;23.00;57.20
71563;DHT22;59391;52.504;13.438;2023-07-31T16:33:51;23.00;56.60
71563;DHT22;59391;52.504;13.438;2023-07-31T16:36:17;23.00;57.40
71563;DHT22;59391;52.504;13.438;2023-07-31T16:38:44;23.10;56.70
71563;DHT22;59391;52.504;13.438;2023-07-31T16:41:10;23.10;56.30
71563;DHT22;59391;52.504;13.438;2023-07-31T16:43:36;23.10;56.40
71563;DHT22;59391;52.504;13.438;2023-07-31T16:46:01;23.10;56.40
71563;DHT22;59391;52.504;13.438;2023-07-31T16:48:27;23.20;56.30
71563;DHT22;59391;52.504;13.438;2023-07-31T16:50:53;23.20;55.20
71563;DHT22;59391;52.504;13.438;2023-07-31T16:53:18;23.20;55.50
71563;DHT22;59391;52.504;13.438;2023-07-31T16:55:44;23.20;55.50
71563;DHT22;59391;52.504;13.438;2023-07-31T16:58:10;23.30;55.60
71563;DHT22;59391;52.504;13.438;2023-07-31T17:00:35;23.30;55.00
71563;DHT22;59391;52.504;13.438;2023-07-31T17:03:02;23.30;55.20
71563;DHT22;59391;52.504;13.438;2023-07-31T17:05:28;23.30;55.20
71563;DHT22;59391;52.504;13.438;2023-07-31T17:07:54;23.40;55.30
71563;DHT22;59391;52.504;13.438;2023-07-31T17:10:20;23.30;55.20
71563;DHT22;59391;52.504;13.438;2023-07-31T17:12:45;23.30;55.20
71563;DHT22;59391;52.504;13.438;2023-07-31T17:15:11;23.40;55.40
71563;DHT22;59391;52.504;13.438;2023-07-31T17:17:37;23.40;55.40
71563;DHT22;59391;52.504;13.438;2023-07-31T17:20:02;23.40;55.30
71563;DHT22;59391;52.504;13.438;2023-07-31T17:22:28;23.40;55.30
71563;DHT22;59391;52.504;13.438;2023-07-31T17:24:54;23.40;55.30
71563;DHT22;59391;52.504;13.438;2023-07-31T17:27:19;23.40;55.30
71563;DHT22;59391;52.504;13.438;2023-07-31T17:29:48;23.40;55.20
71563;DHT22;59391;52.504;13.438;2023-07-31T17:32:15;23.40;55.30
71563;DHT22;59391;52.504;13.438;2023-07-31T17:34:40;23.40;55.60
71563;DHT22;59391;52.504;13.438;2023-07-31T17:37:08;23.40;55.90
71563;DHT22;59391;52.504;13.438;2023-07-31T17:39:34;23.40;58.30
71563;DHT22;59391;52.504;13.438;2023-07-31T17:42:00;23.40;60.10
71563;DHT22;59391;52.504;13.438;2023-07-31T17:44:26;23.30;61.30
71563;DHT22;59391;52.504;13.438;2023-07-31T17:46:52;23.20;61.90
71563;DHT22;59391;52.504;13.438;2023-07-31T17:49:17;23.00;62.10
71563;DHT22;59391;52.504;13.438;2023-07-31T17:51:43;22.80;62.20
71563;DHT22;59391;52.504;13.438;2023-07-31T17:54:09;22.70;63.10
71563;DHT22;59391;52.504;13.438;2023-07-31T17:56:34;22.60;63.80
71563;DHT22;59391;52.504;13.438;2023-07-31T17:59:04;22.50;63.50
71563;DHT22;59391;52.504;13.438;2023-07-31T18:01:30;22.40;64.20
71563;DHT22;59391;52.504;13.438;2023-07-31T18:03:56;22.30;64.40
71563;DHT22;59391;52.504;13.438;2023-07-31T18:06:21;22.20;64.10
71563;DHT22;59391;52.504;13.438;2023-07-31T18:08:47;22.10;64.30
71563;DHT22;59391;52.504;13.438;2023-07-31T18:11:12;22.10;64.20
71563;DHT22;59391;52.504;13.438;2023-07-31T18:13:39;22.10;64.20
71563;DHT22;59391;52.504;13.438;2023-07-31T18:16:05;22.00;64.30
71563;DHT22;59391;52.504;13.438;2023-07-31T18:18:31;22.00;64.40
71563;DHT22;59391;52.504;13.438;2023-07-31T18:20:57;22.00;64.50
71563;DHT22;59391;52.504;13.438;2023-07-31T18:23:24;21.90;64.40
71563;DHT22;59391;52.504;13.438;2023-07-31T18:25:50;21.90;64.80
71563;DHT22;59391;52.504;13.438;2023-07-31T18:28:16;21.90;63.70
71563;DHT22;59391;52.504;13.438;2023-07-31T18:30:42;21.90;63.30
71563;DHT22;59391;52.504;13.438;2023-07-31T18:33:07;21.90;62.90
71563;DHT22;59391;52.504;13.438;2023-07-31T18:35:38;21.90;62.80
71563;DHT22;59391;52.504;13.438;2023-07-31T18:38:04;21.90;62.00
71563;DHT22;59391;52.504;13.438;2023-07-31T18:40:32;22.00;61.80
71563;DHT22;59391;52.504;13.438;2023-07-31T18:42:59;22.00;61.60
71563;DHT22;59391;52.504;13.438;2023-07-31T18:45:24;22.00;61.10
71563;DHT22;59391;52.504;13.438;2023-07-31T18:47:50;22.00;60.80
71563;DHT22;59391;52.504;13.438;2023-07-31T18:50:16;22.10;60.80
71563;DHT22;59391;52.504;13.438;2023-07-31T18:52:41;22.10;60.50
71563;DHT22;59391;52.504;13.438;2023-07-31T18:55:07;22.20;60.30
71563;DHT22;59391;52.504;13.438;2023-07-31T18:57:33;22.20;60.70
71563;DHT22;59391;52.504;13.438;2023-07-31T18:59:58;22.20;60.40
71563;DHT22;59391;52.504;13.438;2023-07-31T19:02:24;22.20;60.20
71563;DHT22;59391;52.504;13.438;2023-07-31T19:04:50;22.20;60.10
71563;DHT22;59391;52.504;13.438;2023-07-31T19:07:16;22.30;60.10
71563;DHT22;59391;52.504;13.438;2023-07-31T19:09:42;22.30;59.90
71563;DHT22;59391;52.504;13.438;2023-07-31T19:12:08;22.30;60.10
71563;DHT22;59391;52.504;13.438;2023-07-31T19:14:34;22.30;59.70
71563;DHT22;59391;52.504;13.438;2023-07-31T19:17:00;22.30;59.80
71563;DHT22;59391;52.504;13.438;2023-07-31T19:19:26;22.30;60.00
71563;DHT22;59391;52.504;13.438;2023-07-31T19:21:51;22.30;60.00
71563;DHT22;59391;52.504;13.438;2023-07-31T19:24:17;22.30;59.90
71563;DHT22;59391;52.504;13.438;2023-07-31T19:26:43;22.30;59.90
71563;DHT22;59391;52.504;13.438;2023-07-31T19:29:09;22.20;60.10
71563;DHT22;59391;52.504;13.438;2023-07-31T19:31:37;22.30;60.00
71563;DHT22;59391;52.504;13.438;2023-07-31T19:34:02;22.30;60.00
71563;DHT22;59391;52.504;13.438;2023-07-31T19:36:28;22.20;60.10
71563;DHT22;59391;52.504;13.438;2023-07-31T19:38:54;22.20;60.00
71563;DHT22;59391;52.504;13.438;2023-07-31T19:41:19;22.20;60.20
71563;DHT22;59391;52.504;13.438;2023-07-31T19:43:45;22.20;60.40
71563;DHT22;59391;52.504;13.438;2023-07-31T19:46:11;22.20;60.40
71563;DHT22;59391;52.504;13.438;2023-07-31T19:48:36;22.20;60.40
71563;DHT22;59391;52.504;13.438;2023-07-31T19:51:02;22.20;60.50
71563;DHT22;59391;52.504;13.438;2023-07-31T19:53:29;22.20;60.70
71563;DHT22;59391;52.504;13.438;2023-07-31T19:55:55;22.10;60.80
71563;DHT22;59391;52.504;13.438;2023-07-31T19:58:22;22.10;60.80
71563;DHT22;59391;52.504;13.438;2023-07-31T20:00:47;22.10;60.90
71563;DHT22;59391;52.504;13.438;2023-07-31T20:03:13;22.10;61.10
71563;DHT22;59391;52.504;13.438;2023-07-31T20:05:39;22.10;61.00
71563;DHT22;59391;52.504;13.438;2023-07-31T20:08:06;22.10;61.10
71563;DHT22;59391;52.504;13.438;2023-07-31T20:10:32;22.10;61.20
71563;DHT22;59391;52.504;13.438;2023-07-31T20:13:00;22.10;61.20
71563;DHT22;59391;52.504;13.438;2023-07-31T20:15:25;22.10;61.30
71563;DHT22;59391;52.504;13.438;2023-07-31T20:17:51;22.10;61.40
71563;DHT22;59391;52.504;13.438;2023-07-31T20:20:16;22.10;61.80
71563;DHT22;59391;52.504;13.438;2023-07-31T20:22:42;22.00;61.60
71563;DHT22;59391;52.504;13.438;2023-07-31T20:25:08;22.00;61.60
71563;DHT22;59391;52.504;13.438;2023-07-31T20:27:34;22.00;61.70
71563;DHT22;59391;52.504;13.438;2023-07-31T20:30:00;22.00;61.80
71563;DHT22;59391;52.504;13.438;2023-07-31T20:32:26;22.00;61.90
71563;DHT22;59391;52.504;13.438;2023-07-31T20:34:51;22.00;61.90
71563;DHT22;59391;52.504;13.438;2023-07-31T20:37:17;22.00;62.10
71563;DHT22;59391;52.504;13.438;2023-07-31T20:39:43;21.90;62.10
71563;DHT22;59391;52.504;13.438;2023-07-31T20:42:08;22.00;62.10
71563;DHT22;59391;52.504;13.438;2023-07-31T20:44:39;21.90;62.10
71563;DHT22;59391;52.504;13.438;2023-07-31T20:47:05;21.90;62.20
71563;DHT22;59391;52.504;13.438;2023-07-31T20:49:30;21.90;62.30
71563;DHT22;59391;52.504;13.438;2023-07-31T20:51:56;21.90;62.30
71563;DHT22;59391;52.504;13.438;2023-07-31T20:54:22;21.90;62.40
71563;DHT22;59391;52.504;13.438;2023-07-31T20:56:47;21.80;62.50
71563;DHT22;59391;52.504;13.438;2023-07-31T20:59:14;21.80;62.50
71563;DHT22;59391;52.504;13.438;2023-07-31T21:01:40;21.80;62.60
71563;DHT22;59391;52.504;13.438;2023-07-31T21:04:07;21.80;62.70
71563;DHT22;59391;52.504;13.438;2023-07-31T21:06:36;21.80;62.70
71563;DHT22;59391;52.504;13.438;2023-07-31T21:09:02;21.70;62.80
71563;DHT22;59391;52.504;13.438;2023-07-31T21:11:29;21.70;62.90
71563;DHT22;59391;52.504;13.438;2023-07-31T21:13:58;21.70;63.00
71563;DHT22;59391;52.504;13.438;2023-07-31T21:16:24;21.70;63.20
71563;DHT22;59391;52.504;13.438;2023-07-31T21:18:51;21.70;63.30
71563;DHT22;59391;52.504;13.438;2023-07-31T21:21:18;21.60;63.40
71563;DHT22;59391;52.504;13.438;2023-07-31T21:23:44;21.70;63.40
71563;DHT22;59391;52.504;13.438;2023-07-31T21:26:10;21.60;63.50
71563;DHT22;59391;52.504;13.438;2023-07-31T21:28:35;21.60;63.60
71563;DHT22;59391;52.504;13.438;2023-07-31T21:31:14;21.60;63.70
71563;DHT22;59391;52.504;13.438;2023-07-31T21:33:41;21.60;63.70
71563;DHT22;59391;52.504;13.438;2023-07-31T21:36:07;21.60;63.60
71563;DHT22;59391;52.504;13.438;2023-07-31T21:38:33;21.60;63.60
71563;DHT22;59391;52.504;13.438;2023-07-31T21:40:59;21.60;63.70
71563;DHT22;59391;52.504;13.438;2023-07-31T21:43:25;21.60;63.60
71563;DHT22;59391;52.504;13.438;2023-07-31T21:45:51;21.60;63.70
71563;DHT22;59391;52.504;13.438;2023-07-31T21:48:17;21.60;63.80
71563;DHT22;59391;52.504;13.438;2023-07-31T21:50:43;21.60;63.60
71563;DHT22;59391;52.504;13.438;2023-07-31T21:53:09;21.60;63.50
71563;DHT22;59391;52.504;13.438;2023-07-31T21:55:35;21.60;63.50
71563;DHT22;59391;52.504;13.438;2023-07-31T21:58:01;21.60;63.70
71563;DHT22;59391;52.504;13.438;2023-07-31T22:00:26;21.60;64.00
71563;DHT22;59391;52.504;13.438;2023-07-31T22:02:53;21.60;63.70
71563;DHT22;59391;52.504;13.438;2023-07-31T22:05:19;21.60;63.80
71563;DHT22;59391;52.504;13.438;2023-07-31T22:07:44;21.60;63.60
71563;DHT22;59391;52.504;13.438;2023-07-31T22:10:10;21.60;63.60
71563;DHT22;59391;52.504;13.438;2023-07-31T22:12:36;21.60;63.50
71563;DHT22;59391;52.504;13.438;2023-07-31T22:15:01;21.60;63.60
71563;DHT22;59391;52.504;13.438;2023-07-31T22:17:27;21.60;63.50
71563;DHT22;59391;52.504;13.438;2023-07-31T22:19:53;21.60;63.60
71563;DHT22;59391;52.504;13.438;2023-07-31T22:22:18;21.60;63.50
71563;DHT22;59391;52.504;13.438;2023-07-31T22:24:44;21.60;63.50
71563;DHT22;59391;52.504;13.438;2023-07-31T22:27:12;21.60;63.50
71563;DHT22;59391;52.504;13.438;2023-07-31T22:29:40;21.60;63.30
71563;DHT22;59391;52.504;13.438;2023-07-31T22:32:07;21.60;63.30
71563;DHT22;59391;52.504;13.438;2023-07-31T22:34:32;21.60;63.20
71563;DHT22;59391;52.504;13.438;2023-07-31T22:36:58;21.70;63.30
71563;DHT22;59391;52.504;13.438;2023-07-31T22:39:24;21.70;63.30
71563;DHT22;59391;52.504;13.438;2023-07-31T22:41:49;21.70;63.10
71563;DHT22;59391;52.504;13.438;2023-07-31T22:44:15;21.70;63.10
71563;DHT22;59391;52.504;13.438;2023-07-31T22:46:41;21.70;63.00
71563;DHT22;59391;52.504;13.438;2023-07-31T22:49:06;21.70;63.00
71563;DHT22;59391;52.504;13.438;2023-07-31T22:51:32;21.70;62.90
71563;DHT22;59391;52.504;13.438;2023-07-31T22:53:58;21.70;62.80
71563;DHT22;59391;52.504;13.438;2023-07-31T22:56:24;21.70;62.90
71563;DHT22;59391;52.504;13.438;2023-07-31T22:58:49;21.70;62.60
71563;DHT22;59391;52.504;13.438;2023-07-31T23:01:15;21.70;62.40
71563;DHT22;59391;52.504;13.438;2023-07-31T23:03:42;21.70;62.20
71563;DHT22;59391;52.504;13.438;2023-07-31T23:06:08;21.70;62.30
71563;DHT22;59391;52.504;13.438;2023-07-31T23:08:34;21.80;62.10
71563;DHT22;59391;52.504;13.438;2023-07-31T23:11:01;21.70;61.80
71563;DHT22;59391;52.504;13.438;2023-07-31T23:13:27;21.80;61.80
71563;DHT22;59391;52.504;13.438;2023-07-31T23:15:53;21.80;61.80
71563;DHT22;59391;52.504;13.438;2023-07-31T23:18:19;21.80;61.40
71563;DHT22;59391;52.504;13.438;2023-07-31T23:20:52;21.80;61.40
71563;DHT22;59391;52.504;13.438;2023-07-31T23:23:19;21.80;61.50
71563;DHT22;59391;52.504;13.438;2023-07-31T23:25:47;21.80;61.20
71563;DHT22;59391;52.504;13.438;2023-07-31T23:28:14;21.80;60.90
71563;DHT22;59391;52.504;13.438;2023-07-31T23:30:39;21.80;61.10
71563;DHT22;59391;52.504;13.438;2023-07-31T23:33:05;21.80;61.60
71563;DHT22;59391;52.504;13.438;2023-07-31T23:35:31;21.80;61.40
71563;DHT22;59391;52.504;13.438;2023-07-31T23:37:57;21.80;62.10
71563;DHT22;59391;52.504;13.438;2023-07-31T23:40:24;21.80;62.30
71563;DHT22;59391;52.504;13.438;2023-07-31T23:42:50;21.80;62.90
71563;DHT22;59391;52.504;13.438;2023-07-31T23:45:16;21.70;63.30
71563;DHT22;59391;52.504;13.438;2023-07-31T23:47:42;21.60;63.60
71563;DHT22;59391;52.504;13.438;2023-07-31T23:50:08;21.60;63.50
71563;DHT22;59391;52.504;13.438;2023-07-31T23:52:37;21.50;64.00
71563;DHT22;59391;52.504;13.438;2023-07-31T23:55:03;21.40;64.40
71563;DHT22;59391;52.504;13.438;2023-07-31T23:57:30;21.30;64.50
71563;DHT22;59391;52.504;13.438;2023-07-31T23:59:56;21.30;64.80
